Terminal Aerodrome Forecast
Issued by NWS Atlanta, GA

Home | Current Version | Previous Version | Text Only | Print | Product List | Glossary On
Versions: 1 2 3 4 5 6 7 8 9 10 11 12 13 14 15 16 17 18 19 20 21 22 23 24 25 26 27 28 29 30 31 32 33 34 35 36
000
FTAK31 PAJN 180500
TAFAHN
TAF
PAHN 180535Z 1806/1906 VRB04KT P6SM -SHRA FEW020 BKN050 OVC070
     FM180900 10010KT P6SM -SHRA BKN025 OVC050
     FM181400 10010G18KT P6SM -SHRA BKN025 OVC050
     FM182200 10010KT P6SM VCSH SCT035 BKN070
     FM190200 10006KT P6SM SCT035 SCT070
      AMD LTD TO CLD VIS AND WIND=

USA.gov is the U.S. government's official web portal to all federal, state and local government web resources and services.